createdAt,value
2023-03-31T00:01:07.639Z,12.38
2023-03-31T00:03:39.091Z,12.52
2023-03-31T00:06:06.428Z,12.88
2023-03-31T00:08:35.982Z,10.35
2023-03-31T00:11:04.625Z,11.32
2023-03-31T00:13:31.558Z,8.98
2023-03-31T00:15:59.424Z,11.93
2023-03-31T00:18:26.350Z,6.88
2023-03-31T00:20:54.477Z,7.43
2023-03-31T00:23:28.092Z,6.43
2023-03-31T00:25:55.959Z,9.18
2023-03-31T00:28:22.806Z,11.32
2023-03-31T00:30:49.972Z,12.32
2023-03-31T00:33:16.758Z,9.32
2023-03-31T00:35:43.728Z,8.10
2023-03-31T00:38:13.961Z,7.03
2023-03-31T00:40:51.171Z,9.55
2023-03-31T00:43:25.473Z,9.80
2023-03-31T00:45:55.054Z,11.40
2023-03-31T00:48:24.172Z,14.30
2023-03-31T00:50:54.868Z,7.30
2023-03-31T00:53:25.178Z,9.65
2023-03-31T00:55:53.314Z,6.35
2023-03-31T00:58:21.276Z,9.30
2023-03-31T01:00:49.277Z,4.70
2023-03-31T01:03:16.436Z,7.25
2023-03-31T01:05:45.925Z,6.40
2023-03-31T01:08:13.633Z,4.13
2023-03-31T01:10:51.115Z,5.43
2023-03-31T01:13:20.963Z,3.78
2023-03-31T01:15:47.782Z,6.35
2023-03-31T01:18:16.467Z,7.05
2023-03-31T01:20:49.624Z,3.70
2023-03-31T01:23:31.769Z,3.17
2023-03-31T01:26:07.964Z,4.35
2023-03-31T01:28:53.584Z,7.95
2023-03-31T01:31:39.407Z,4.95
2023-03-31T01:34:24.796Z,5.20
2023-03-31T01:36:57.904Z,5.05
2023-03-31T01:39:43.685Z,2.40
2023-03-31T01:42:17.205Z,5.05
2023-03-31T01:44:57.599Z,4.88
2023-03-31T01:47:27.093Z,10.25
2023-03-31T01:50:05.146Z,6.70
2023-03-31T01:52:42.373Z,7.97
2023-03-31T01:55:28.096Z,9.88
2023-03-31T01:57:59.104Z,6.97
2023-03-31T02:00:33.494Z,10.07
2023-03-31T02:03:10.899Z,10.65
2023-03-31T02:05:44.079Z,8.52
2023-03-31T02:08:13.491Z,7.68
2023-03-31T02:10:42.635Z,12.25
2023-03-31T02:13:11.781Z,10.60
2023-03-31T02:15:40.443Z,8.27
2023-03-31T02:18:11.414Z,11.15
2023-03-31T02:20:42.176Z,11.23
2023-03-31T02:23:10.358Z,12.95
2023-03-31T02:25:41.361Z,16.52
2023-03-31T02:28:13.822Z,9.45
2023-03-31T02:30:51.149Z,9.25
2023-03-31T02:33:17.973Z,12.00
2023-03-31T02:35:44.836Z,11.68
2023-03-31T02:38:11.818Z,8.73
2023-03-31T02:40:38.674Z,7.03
2023-03-31T02:43:05.804Z,10.05
2023-03-31T02:45:41.269Z,12.13
2023-03-31T02:48:28.412Z,9.15
2023-03-31T02:51:08.331Z,9.27
2023-03-31T02:54:04.692Z,11.88
2023-03-31T02:56:40.950Z,13.20
2023-03-31T02:59:21.339Z,10.40
2023-03-31T03:01:57.118Z,11.65
2023-03-31T03:04:42.678Z,12.40
2023-03-31T03:07:12.713Z,12.88
2023-03-31T03:09:54.715Z,12.55
2023-03-31T03:12:24.438Z,15.30
2023-03-31T03:14:56.124Z,16.25
2023-03-31T03:17:29.157Z,18.58
2023-03-31T03:19:57.081Z,11.57
2023-03-31T03:22:23.890Z,13.15
2023-03-31T03:24:52.300Z,15.90
2023-03-31T03:27:19.884Z,13.68
2023-03-31T03:29:47.719Z,12.27
2023-03-31T03:32:14.647Z,13.75
2023-03-31T03:34:41.468Z,13.50
2023-03-31T03:37:08.339Z,14.27
2023-03-31T03:39:35.370Z,17.60
2023-03-31T03:42:02.405Z,13.68
2023-03-31T03:44:29.581Z,20.20
2023-03-31T03:46:56.381Z,15.15
2023-03-31T03:49:23.207Z,17.60
2023-03-31T03:51:50.077Z,17.85
2023-03-31T03:54:16.993Z,18.30
2023-03-31T03:56:43.934Z,25.95
2023-03-31T03:59:11.579Z,16.13
2023-03-31T04:01:38.501Z,13.73
2023-03-31T04:04:05.529Z,18.55
2023-03-31T04:06:32.426Z,19.00
2023-03-31T04:08:59.246Z,14.45
2023-03-31T04:11:26.246Z,16.52
2023-03-31T04:13:53.103Z,18.75
2023-03-31T04:16:20.085Z,15.07
2023-03-31T04:18:48.800Z,16.17
2023-03-31T04:21:23.028Z,9.20
2023-03-31T04:23:50.971Z,11.63
2023-03-31T04:26:18.864Z,14.20
2023-03-31T04:28:50.820Z,9.43
2023-03-31T04:31:26.985Z,9.40
2023-03-31T04:33:54.597Z,12.05
2023-03-31T04:36:22.058Z,11.32
2023-03-31T04:38:51.001Z,15.73
2023-03-31T04:41:18.887Z,9.75
2023-03-31T04:43:45.774Z,7.75
2023-03-31T04:46:12.610Z,10.68
2023-03-31T04:48:39.740Z,13.68
2023-03-31T04:51:07.035Z,11.95
2023-03-31T04:53:34.155Z,14.18
2023-03-31T04:56:01.092Z,9.57
2023-03-31T04:58:27.971Z,11.48
2023-03-31T05:00:54.873Z,12.52
2023-03-31T05:03:22.133Z,9.65
2023-03-31T05:05:49.014Z,8.15
2023-03-31T05:08:16.472Z,13.50
2023-03-31T05:10:43.332Z,9.80
2023-03-31T05:13:10.771Z,9.30
2023-03-31T05:15:38.463Z,11.85
2023-03-31T05:18:06.116Z,9.98
2023-03-31T05:20:33.053Z,9.57
2023-03-31T05:23:00.119Z,7.55
2023-03-31T05:25:32.641Z,9.05
2023-03-31T05:28:00.193Z,5.90
2023-03-31T05:30:27.024Z,9.40
2023-03-31T05:32:53.939Z,6.35
2023-03-31T05:35:20.881Z,6.63
2023-03-31T05:37:47.654Z,8.88
2023-03-31T05:40:14.503Z,7.95
2023-03-31T05:42:42.035Z,4.70
2023-03-31T05:45:09.512Z,10.63
2023-03-31T05:47:37.014Z,5.88
2023-03-31T05:50:07.954Z,7.22
2023-03-31T05:52:35.297Z,5.30
2023-03-31T05:55:02.262Z,6.70
2023-03-31T05:57:29.273Z,8.85
2023-03-31T05:59:56.148Z,14.60
2023-03-31T06:02:23.373Z,7.75
2023-03-31T06:04:50.469Z,13.18
2023-03-31T06:07:17.967Z,11.02
2023-03-31T06:09:45.723Z,16.08
2023-03-31T06:12:12.601Z,11.80
2023-03-31T06:14:39.397Z,9.82
2023-03-31T06:17:07.264Z,12.63
2023-03-31T06:19:34.418Z,14.95
2023-03-31T06:22:01.718Z,15.75
2023-03-31T06:24:28.602Z,15.15
2023-03-31T06:26:55.635Z,14.73
2023-03-31T06:29:22.458Z,17.23
2023-03-31T06:31:49.306Z,15.38
2023-03-31T06:34:17.777Z,15.70
2023-03-31T06:36:45.246Z,12.65
2023-03-31T06:39:12.056Z,13.45
2023-03-31T06:41:39.209Z,11.23
2023-03-31T06:44:06.268Z,12.50
2023-03-31T06:46:33.165Z,10.57
2023-03-31T06:48:59.988Z,17.77
2023-03-31T06:51:26.895Z,14.60
2023-03-31T06:53:53.712Z,16.83
2023-03-31T06:56:20.498Z,13.80
2023-03-31T06:58:47.337Z,21.27
2023-03-31T07:01:14.220Z,12.52
2023-03-31T07:03:41.194Z,18.13
2023-03-31T07:06:08.201Z,16.85
2023-03-31T07:08:35.047Z,14.35
2023-03-31T07:11:03.467Z,13.00
2023-03-31T07:13:30.425Z,15.65
2023-03-31T07:15:57.491Z,15.35
2023-03-31T07:18:35.130Z,14.35
2023-03-31T07:21:02.886Z,13.43
2023-03-31T07:23:29.728Z,15.05
2023-03-31T07:25:56.712Z,16.58
2023-03-31T07:28:23.468Z,16.88
2023-03-31T07:30:51.042Z,19.58
2023-03-31T07:33:17.849Z,14.20
2023-03-31T07:35:44.704Z,13.77
2023-03-31T07:38:12.154Z,17.30
2023-03-31T07:40:39.569Z,16.38
2023-03-31T07:43:06.828Z,17.90
2023-03-31T07:45:36.751Z,13.32
2023-03-31T07:48:03.715Z,19.27
2023-03-31T07:50:30.529Z,20.63
2023-03-31T07:52:57.597Z,13.02
2023-03-31T07:55:26.305Z,20.63
2023-03-31T07:57:53.200Z,18.70
2023-03-31T08:00:20.470Z,17.63
2023-03-31T08:02:47.291Z,16.80
2023-03-31T08:05:15.026Z,19.85
2023-03-31T08:07:42.847Z,13.02
2023-03-31T08:10:11.149Z,16.45
2023-03-31T08:12:37.975Z,16.20
2023-03-31T08:15:05.347Z,8.52
2023-03-31T08:17:32.179Z,17.38
2023-03-31T08:20:03.765Z,15.13
2023-03-31T08:22:33.117Z,11.43
2023-03-31T08:24:59.989Z,16.40
2023-03-31T08:27:26.894Z,10.13
2023-03-31T08:29:53.692Z,11.88
2023-03-31T08:32:24.556Z,14.15
2023-03-31T08:34:51.720Z,11.07
2023-03-31T08:37:18.784Z,10.95
2023-03-31T08:39:46.183Z,15.05
2023-03-31T08:42:20.502Z,10.38
2023-03-31T08:44:50.330Z,17.85
2023-03-31T08:47:18.641Z,16.45
2023-03-31T08:49:50.127Z,16.35
2023-03-31T08:54:45.292Z,13.77
2023-03-31T08:57:15.826Z,11.52
2023-03-31T08:59:44.537Z,12.45
2023-03-31T09:02:31.331Z,10.27
2023-03-31T09:05:07.609Z,9.60
2023-03-31T09:07:40.646Z,13.43
2023-03-31T09:10:07.459Z,13.32
2023-03-31T09:12:37.287Z,11.07
2023-03-31T09:15:05.438Z,7.65
2023-03-31T09:17:41.198Z,16.98
2023-03-31T09:20:13.746Z,9.15
2023-03-31T09:22:43.864Z,13.38
2023-03-31T09:25:17.146Z,7.47
2023-03-31T09:27:44.347Z,9.90
2023-03-31T09:30:11.459Z,6.72
2023-03-31T09:32:38.940Z,4.32
2023-03-31T09:35:18.193Z,9.52
2023-03-31T09:37:45.090Z,5.22
2023-03-31T09:40:16.200Z,5.10
2023-03-31T09:42:43.082Z,5.40
2023-03-31T09:45:17.567Z,3.90
2023-03-31T09:47:46.378Z,6.13
2023-03-31T09:50:14.552Z,5.88
2023-03-31T09:52:42.831Z,9.00
2023-03-31T09:55:38.963Z,4.63
2023-03-31T09:58:08.139Z,3.75
2023-03-31T10:00:35.051Z,6.10
2023-03-31T10:03:07.601Z,3.22
2023-03-31T10:05:43.394Z,4.10
2023-03-31T10:08:24.715Z,3.10
2023-03-31T10:11:04.025Z,1.77
2023-03-31T10:13:46.540Z,2.63
2023-03-31T10:16:22.698Z,2.28
2023-03-31T10:18:50.055Z,3.60
2023-03-31T10:21:21.970Z,1.38
2023-03-31T10:23:49.658Z,1.80
2023-03-31T10:26:23.983Z,0.75
2023-03-31T10:28:52.823Z,2.72
2023-03-31T10:31:20.283Z,4.13
2023-03-31T10:33:49.032Z,1.52
2023-03-31T10:36:21.050Z,0.30
2023-03-31T10:38:48.825Z,0.95
2023-03-31T10:41:20.732Z,1.60
2023-03-31T10:43:49.145Z,1.77
2023-03-31T10:46:16.038Z,1.75
2023-03-31T10:48:44.554Z,1.27
2023-03-31T10:51:13.498Z,1.80
2023-03-31T10:53:42.916Z,1.77
2023-03-31T10:56:28.902Z,2.45
2023-03-31T10:59:06.155Z,1.20
2023-03-31T11:01:45.834Z,0.85
2023-03-31T11:04:21.957Z,0.65
2023-03-31T11:06:48.787Z,0.90
2023-03-31T11:09:24.698Z,1.35
2023-03-31T11:12:03.824Z,1.58
2023-03-31T11:14:39.107Z,2.28
2023-03-31T11:17:26.281Z,2.75
2023-03-31T11:20:03.138Z,1.75
2023-03-31T11:22:39.007Z,1.73
2023-03-31T11:25:21.310Z,2.63
2023-03-31T11:27:48.110Z,2.17
2023-03-31T11:30:27.432Z,2.70
2023-03-31T11:33:00.831Z,4.47
2023-03-31T11:35:45.698Z,4.35
2023-03-31T11:38:16.039Z,2.20
2023-03-31T11:40:52.031Z,2.72
2023-03-31T11:43:25.440Z,1.92
2023-03-31T11:46:12.450Z,2.17
2023-03-31T11:48:48.193Z,2.28
2023-03-31T11:51:26.643Z,3.63
2023-03-31T11:53:57.184Z,1.90
2023-03-31T11:56:35.133Z,3.47
2023-03-31T11:59:03.031Z,1.63
2023-03-31T12:01:36.592Z,1.90
2023-03-31T12:04:23.661Z,2.00
2023-03-31T12:06:52.464Z,2.15
2023-03-31T12:09:38.015Z,2.45
2023-03-31T12:12:17.149Z,1.10
2023-03-31T12:14:48.698Z,2.72
2023-03-31T12:17:19.934Z,2.25
2023-03-31T12:19:52.637Z,1.40
2023-03-31T12:22:25.041Z,2.30
2023-03-31T12:24:52.200Z,2.20
2023-03-31T12:27:27.810Z,2.30
2023-03-31T12:29:58.320Z,1.80
2023-03-31T12:32:28.541Z,2.70
2023-03-31T12:35:07.429Z,1.77
2023-03-31T12:37:43.088Z,1.90
2023-03-31T12:40:13.020Z,2.85
2023-03-31T12:42:59.259Z,1.83
2023-03-31T12:45:30.354Z,3.88
2023-03-31T12:48:06.913Z,2.30
2023-03-31T12:50:41.912Z,2.35
2023-03-31T12:53:27.748Z,1.52
2023-03-31T12:55:57.977Z,1.05
2023-03-31T12:58:25.162Z,0.80
2023-03-31T13:01:07.993Z,2.97
2023-03-31T13:03:35.452Z,0.75
2023-03-31T13:06:03.143Z,0.52
2023-03-31T13:08:50.669Z,0.85
2023-03-31T13:11:40.618Z,0.50
2023-03-31T13:14:14.235Z,1.67
2023-03-31T13:16:41.300Z,1.42
2023-03-31T13:19:11.868Z,1.17
2023-03-31T13:21:55.451Z,1.90
2023-03-31T13:24:23.685Z,0.68
2023-03-31T13:26:53.393Z,0.60
2023-03-31T13:29:23.157Z,0.70
2023-03-31T13:32:02.196Z,2.25
2023-03-31T13:34:38.404Z,1.88
2023-03-31T13:37:23.605Z,0.50
2023-03-31T13:40:09.616Z,1.13
2023-03-31T13:42:56.789Z,0.50
2023-03-31T13:45:32.624Z,1.45
2023-03-31T13:48:02.647Z,0.57
2023-03-31T13:50:36.219Z,1.65
2023-03-31T13:53:14.979Z,1.23
2023-03-31T13:55:44.573Z,1.02
2023-03-31T13:58:33.357Z,1.23
2023-03-31T14:01:13.041Z,1.17
2023-03-31T14:03:55.691Z,2.13
2023-03-31T14:06:28.760Z,0.82
2023-03-31T14:08:58.086Z,1.10
2023-03-31T14:11:29.176Z,1.35
2023-03-31T14:13:59.465Z,0.77
2023-03-31T14:16:27.294Z,1.10
2023-03-31T14:19:00.679Z,1.17
2023-03-31T14:21:35.928Z,0.65
2023-03-31T14:24:08.835Z,3.35
2023-03-31T14:27:05.210Z,2.72
2023-03-31T14:29:45.761Z,2.10
2023-03-31T14:32:32.580Z,1.33
2023-03-31T14:35:08.456Z,1.10
2023-03-31T14:37:35.476Z,4.60
2023-03-31T14:40:03.538Z,0.77
2023-03-31T14:42:38.238Z,1.33
2023-03-31T14:45:09.907Z,1.48
2023-03-31T14:47:36.754Z,1.45
2023-03-31T14:50:17.180Z,1.25
2023-03-31T14:52:47.910Z,2.05
2023-03-31T14:55:15.914Z,2.55
2023-03-31T14:57:43.833Z,1.17
2023-03-31T15:00:21.851Z,1.70
2023-03-31T15:02:48.759Z,2.88
2023-03-31T15:05:35.202Z,2.08
2023-03-31T15:08:03.773Z,1.25
2023-03-31T15:10:33.685Z,1.08
2023-03-31T15:13:01.856Z,0.95
2023-03-31T15:15:28.711Z,0.50
2023-03-31T15:17:55.743Z,0.57
2023-03-31T15:20:41.659Z,1.98
2023-03-31T15:23:25.008Z,0.75
2023-03-31T15:25:54.600Z,1.38
2023-03-31T15:28:22.169Z,2.40
2023-03-31T15:30:52.219Z,1.15
2023-03-31T15:33:31.738Z,1.58
2023-03-31T15:35:58.912Z,1.55
2023-03-31T15:38:27.941Z,1.70
2023-03-31T15:40:55.867Z,2.22
2023-03-31T15:43:33.010Z,2.63
2023-03-31T15:46:00.648Z,1.45
2023-03-31T15:48:33.433Z,1.50
2023-03-31T15:51:01.251Z,2.95
2023-03-31T15:53:38.975Z,1.50
2023-03-31T15:56:06.877Z,2.38
2023-03-31T15:58:52.366Z,3.17
2023-03-31T16:01:19.302Z,1.65
2023-03-31T16:03:46.237Z,0.57
2023-03-31T16:06:22.284Z,0.85
2023-03-31T16:08:53.127Z,1.48
2023-03-31T16:11:24.387Z,0.70
2023-03-31T16:13:54.319Z,7.22
2023-03-31T16:16:23.092Z,0.47
2023-03-31T16:18:51.555Z,1.80
2023-03-31T16:21:26.503Z,0.55
2023-03-31T16:23:55.948Z,0.95
2023-03-31T16:26:24.134Z,0.88
2023-03-31T16:28:52.760Z,0.52
2023-03-31T16:31:29.473Z,1.42
2023-03-31T16:33:57.117Z,0.60
2023-03-31T16:36:24.052Z,1.55
2023-03-31T16:38:54.340Z,0.98
2023-03-31T16:41:23.267Z,0.98
2023-03-31T16:43:52.568Z,0.47
2023-03-31T16:46:19.528Z,2.05
2023-03-31T16:48:46.485Z,0.80
2023-03-31T16:51:13.573Z,1.45
2023-03-31T16:53:40.561Z,4.32
2023-03-31T16:56:08.425Z,1.65
2023-03-31T16:58:36.030Z,3.33
2023-03-31T17:01:03.647Z,4.47
2023-03-31T17:03:30.883Z,2.28
2023-03-31T17:05:59.413Z,5.18
2023-03-31T17:08:27.791Z,1.50
2023-03-31T17:10:56.246Z,2.53
2023-03-31T17:13:23.131Z,3.00
2023-03-31T17:15:52.144Z,3.58
2023-03-31T17:18:22.843Z,3.40
2023-03-31T17:20:49.795Z,2.13
2023-03-31T17:23:16.869Z,4.13
2023-03-31T17:25:50.584Z,3.28
2023-03-31T17:28:18.451Z,1.70
2023-03-31T17:30:47.867Z,4.25
2023-03-31T17:33:15.634Z,4.53
2023-03-31T17:35:42.847Z,3.92
2023-03-31T17:38:11.071Z,3.72
2023-03-31T17:40:38.190Z,2.90
2023-03-31T17:43:05.325Z,2.90
2023-03-31T17:45:33.772Z,2.85
2023-03-31T17:48:01.068Z,3.85
2023-03-31T17:50:28.204Z,2.97
2023-03-31T17:52:55.691Z,4.10
2023-03-31T17:55:23.605Z,3.42
2023-03-31T17:57:50.568Z,2.65
2023-03-31T18:00:17.607Z,2.17
2023-03-31T18:02:44.686Z,4.05
2023-03-31T18:05:11.682Z,3.53
2023-03-31T18:07:38.857Z,2.17
2023-03-31T18:10:06.091Z,2.33
2023-03-31T18:12:34.468Z,1.48
2023-03-31T18:15:02.967Z,3.90
2023-03-31T18:17:31.232Z,3.38
2023-03-31T18:19:59.205Z,3.05
2023-03-31T18:22:26.536Z,2.15
2023-03-31T18:24:56.594Z,2.00
2023-03-31T18:27:25.086Z,2.97
2023-03-31T18:29:52.445Z,3.88
2023-03-31T18:32:19.423Z,2.78
2023-03-31T18:34:47.006Z,1.42
2023-03-31T18:37:13.867Z,2.58
2023-03-31T18:39:40.759Z,2.88
2023-03-31T18:42:07.810Z,1.67
2023-03-31T18:44:36.054Z,4.68
2023-03-31T18:47:03.076Z,1.60
2023-03-31T18:49:29.931Z,2.90
2023-03-31T18:51:58.761Z,4.18
2023-03-31T18:54:26.094Z,4.60
2023-03-31T18:56:53.078Z,4.15
2023-03-31T18:59:19.865Z,2.08
2023-03-31T19:01:46.824Z,2.60
2023-03-31T19:04:13.937Z,2.92
2023-03-31T19:06:41.026Z,2.35
2023-03-31T19:09:08.155Z,2.40
2023-03-31T19:11:35.164Z,3.47
2023-03-31T19:14:02.084Z,3.22
2023-03-31T19:16:29.148Z,5.65
2023-03-31T19:18:56.228Z,2.20
2023-03-31T19:21:23.300Z,2.13
2023-03-31T19:23:50.192Z,2.90
2023-03-31T19:26:19.532Z,4.00
2023-03-31T19:28:48.005Z,3.25
2023-03-31T19:31:15.589Z,1.42
2023-03-31T19:33:42.904Z,2.50
2023-03-31T19:36:09.783Z,3.35
2023-03-31T19:38:36.991Z,2.47
2023-03-31T19:41:06.506Z,2.92
2023-03-31T19:43:33.847Z,3.15
2023-03-31T19:46:01.041Z,3.25
2023-03-31T19:48:30.293Z,2.88
2023-03-31T19:50:59.674Z,2.50
2023-03-31T19:53:26.908Z,2.97
2023-03-31T19:56:03.144Z,2.70
2023-03-31T19:58:30.949Z,3.33
2023-03-31T20:00:58.060Z,3.17
2023-03-31T20:03:26.295Z,3.53
2023-03-31T20:06:01.608Z,2.97
2023-03-31T20:08:28.771Z,4.47
2023-03-31T20:10:59.435Z,4.70
2023-03-31T20:13:26.405Z,3.63
2023-03-31T20:16:04.911Z,2.80
2023-03-31T20:18:32.083Z,1.95
2023-03-31T20:21:05.629Z,3.45
2023-03-31T20:23:33.023Z,3.00
2023-03-31T20:26:01.348Z,3.70
2023-03-31T20:28:29.182Z,2.15
2023-03-31T20:30:56.361Z,2.70
2023-03-31T20:33:23.942Z,3.90
2023-03-31T20:36:05.878Z,4.53
2023-03-31T20:38:33.371Z,3.80
2023-03-31T20:41:00.363Z,3.65
2023-03-31T20:43:27.354Z,3.85
2023-03-31T20:45:57.735Z,3.95
2023-03-31T20:48:25.633Z,3.90
2023-03-31T20:50:53.218Z,5.22
2023-03-31T20:53:20.100Z,3.90
2023-03-31T20:55:46.994Z,2.78
2023-03-31T20:58:13.817Z,4.15
2023-03-31T21:00:40.822Z,2.53
2023-03-31T21:03:07.706Z,4.22
2023-03-31T21:05:42.015Z,2.75
2023-03-31T21:08:08.883Z,4.15
2023-03-31T21:10:39.422Z,3.35
2023-03-31T21:13:06.348Z,3.80
2023-03-31T21:15:33.290Z,3.65
2023-03-31T21:18:00.356Z,3.88
2023-03-31T21:20:27.237Z,3.40
2023-03-31T21:22:54.270Z,4.38
2023-03-31T21:25:21.178Z,4.50
2023-03-31T21:27:48.145Z,2.65
2023-03-31T21:30:15.471Z,4.65
2023-03-31T21:32:42.328Z,2.85
2023-03-31T21:35:09.444Z,3.78
2023-03-31T21:37:36.720Z,2.83
2023-03-31T21:40:04.414Z,3.45
2023-03-31T21:42:33.024Z,3.53
2023-03-31T21:44:59.870Z,3.28
2023-03-31T21:47:27.319Z,3.13
2023-03-31T21:49:54.639Z,3.53
2023-03-31T21:52:22.510Z,5.75
2023-03-31T21:54:49.298Z,2.60
2023-03-31T21:57:16.678Z,4.47
2023-03-31T21:59:43.566Z,3.40
2023-03-31T22:02:10.593Z,3.63
2023-03-31T22:04:37.626Z,2.85
2023-03-31T22:07:04.526Z,2.30
2023-03-31T22:09:31.366Z,2.78
2023-03-31T22:11:58.219Z,3.10
2023-03-31T22:14:25.032Z,3.13
2023-03-31T22:16:52.523Z,3.35
2023-03-31T22:19:19.805Z,3.92
2023-03-31T22:21:47.155Z,3.28
2023-03-31T22:24:14.115Z,3.03
2023-03-31T22:26:41.147Z,4.20
2023-03-31T22:29:08.070Z,3.55
2023-03-31T22:31:34.947Z,2.35
2023-03-31T22:34:01.781Z,2.47
2023-03-31T22:36:28.717Z,3.20
2023-03-31T22:38:55.578Z,2.95
2023-03-31T22:41:22.410Z,2.40
2023-03-31T22:43:51.084Z,2.60
2023-03-31T22:46:18.014Z,4.25
2023-03-31T22:48:47.723Z,3.50
2023-03-31T22:51:14.563Z,4.05
2023-03-31T22:53:41.634Z,2.60
2023-03-31T22:56:10.613Z,3.03
2023-03-31T22:58:38.388Z,4.72
2023-03-31T23:01:05.966Z,4.03
2023-03-31T23:03:33.104Z,4.25
2023-03-31T23:06:06.747Z,4.78
2023-03-31T23:08:35.829Z,4.47
2023-03-31T23:11:03.982Z,5.82
2023-03-31T23:13:30.969Z,4.05
2023-03-31T23:16:03.533Z,5.40
2023-03-31T23:18:30.471Z,5.38
2023-03-31T23:20:57.514Z,5.22
2023-03-31T23:23:24.469Z,5.47
2023-03-31T23:25:51.269Z,4.78
2023-03-31T23:28:18.529Z,6.10
2023-03-31T23:30:52.047Z,6.35
2023-03-31T23:33:18.889Z,7.25
2023-03-31T23:35:45.696Z,8.00
2023-03-31T23:38:12.581Z,5.53
2023-03-31T23:40:39.822Z,6.35
2023-03-31T23:43:06.866Z,6.95
2023-03-31T23:45:33.947Z,6.75
2023-03-31T23:48:01.183Z,7.82
2023-03-31T23:50:28.645Z,6.05
2023-03-31T23:52:57.366Z,7.97
2023-03-31T23:55:24.198Z,6.55
2023-03-31T23:57:51.132Z,6.57
